createdAt,value
2022-12-16T00:01:24.289Z,0.60
2022-12-16T00:03:55.602Z,0.53
2022-12-16T00:06:26.854Z,0.70
2022-12-16T00:08:55.047Z,1.70
2022-12-16T00:11:23.136Z,1.43
2022-12-16T00:13:51.161Z,0.40
2022-12-16T00:16:22.012Z,1.17
2022-12-16T00:18:51.788Z,1.13
2022-12-16T00:21:21.933Z,1.40
2022-12-16T00:23:50.004Z,2.20
2022-12-16T00:26:17.954Z,1.10
2022-12-16T00:28:45.910Z,0.87
2022-12-16T00:31:13.977Z,2.57
2022-12-16T00:33:42.448Z,1.70
2022-12-16T00:36:11.059Z,0.80
2022-12-16T00:38:40.422Z,1.37
2022-12-16T00:41:08.347Z,0.93
2022-12-16T00:43:36.563Z,1.23
2022-12-16T00:46:04.805Z,0.80
2022-12-16T00:48:32.874Z,1.00
2022-12-16T00:51:00.790Z,0.93
2022-12-16T00:53:29.286Z,1.47
2022-12-16T00:56:08.241Z,0.20
2022-12-16T00:58:36.586Z,1.57
2022-12-16T01:01:05.440Z,0.87
2022-12-16T01:03:33.639Z,1.00
2022-12-16T01:06:01.909Z,1.43
2022-12-16T01:08:29.833Z,0.83
2022-12-16T01:24:59.986Z,1.67
2022-12-16T01:27:28.095Z,0.73
2022-12-16T01:29:56.302Z,1.47
2022-12-16T01:32:24.432Z,1.03
2022-12-16T01:34:54.885Z,0.50
2022-12-16T01:37:24.628Z,0.50
2022-12-16T01:39:52.710Z,0.93
2022-12-16T01:42:24.137Z,1.80
2022-12-16T01:44:55.170Z,0.60
2022-12-16T01:47:27.756Z,1.03
2022-12-16T01:50:00.671Z,0.87
2022-12-16T01:52:31.558Z,1.73
2022-12-16T01:55:04.024Z,0.87
2022-12-16T01:57:37.819Z,0.40
2022-12-16T02:00:07.465Z,1.15
2022-12-16T02:02:36.449Z,1.13
2022-12-16T02:05:22.893Z,0.20
2022-12-16T02:07:59.682Z,1.97
2022-12-16T02:21:50.909Z,0.57
2022-12-16T02:24:53.747Z,1.20
2022-12-16T02:27:43.890Z,0.40
2022-12-16T02:30:47.265Z,1.00
2022-12-16T02:33:30.663Z,1.00
2022-12-16T02:36:08.677Z,1.17
2022-12-16T02:38:43.589Z,0.47
2022-12-16T02:41:16.953Z,1.43
2022-12-16T02:43:57.854Z,1.03
2022-12-16T02:46:30.261Z,0.27
2022-12-16T02:48:58.181Z,0.60
2022-12-16T02:51:27.931Z,1.07
2022-12-16T02:53:56.840Z,1.20
2022-12-16T02:56:38.251Z,0.70
2022-12-16T02:59:17.189Z,0.43
2022-12-16T03:01:53.815Z,0.33
2022-12-16T03:04:26.112Z,1.27
2022-12-16T03:06:55.930Z,1.70
2022-12-16T03:09:28.100Z,0.30
2022-12-16T03:11:57.706Z,0.60
2022-12-16T03:14:30.814Z,0.53
2022-12-16T03:17:01.561Z,0.50
2022-12-16T03:19:31.004Z,1.07
2022-12-16T03:22:04.869Z,1.43
2022-12-16T03:24:33.671Z,0.98
2022-12-16T03:27:09.820Z,0.30
2022-12-16T03:29:43.702Z,0.33
2022-12-16T03:32:17.839Z,0.20
2022-12-16T03:34:52.050Z,0.85
2022-12-16T03:37:23.556Z,0.35
2022-12-16T03:39:56.115Z,1.03
2022-12-16T03:42:25.374Z,1.10
2022-12-16T03:44:53.526Z,1.17
2022-12-16T03:47:24.114Z,1.03
2022-12-16T03:49:52.462Z,1.77
2022-12-16T03:52:20.413Z,0.53
2022-12-16T03:54:48.395Z,1.70
2022-12-16T03:57:16.343Z,0.83
2022-12-16T03:59:44.681Z,0.70
2022-12-16T04:02:12.772Z,0.60
2022-12-16T04:04:42.187Z,1.17
2022-12-16T04:07:22.081Z,2.00
2022-12-16T04:09:51.110Z,2.73
2022-12-16T04:12:36.541Z,1.57
2022-12-16T04:15:22.513Z,0.57
2022-12-16T04:18:07.888Z,0.70
2022-12-16T04:20:58.036Z,0.53
2022-12-16T04:23:46.380Z,0.77
2022-12-16T04:26:14.418Z,0.37
2022-12-16T04:28:42.384Z,0.50
2022-12-16T04:31:10.432Z,1.30
2022-12-16T04:33:55.789Z,0.20
2022-12-16T04:36:42.775Z,0.40
2022-12-16T04:39:28.148Z,0.30
2022-12-16T04:42:14.384Z,1.03
2022-12-16T04:44:59.953Z,0.50
2022-12-16T04:47:45.464Z,0.53
2022-12-16T04:50:30.892Z,0.47
2022-12-16T04:53:17.917Z,0.20
2022-12-16T04:56:04.647Z,0.50
2022-12-16T04:58:50.203Z,0.53
2022-12-16T05:01:35.850Z,0.20
2022-12-16T05:04:21.663Z,0.67
2022-12-16T05:07:07.215Z,0.40
2022-12-16T05:09:53.985Z,0.50
2022-12-16T05:12:39.450Z,1.27
2022-12-16T05:15:25.908Z,0.50
2022-12-16T05:18:10.497Z,0.60
2022-12-16T05:20:55.976Z,1.05
2022-12-16T05:23:41.457Z,0.47
2022-12-16T05:26:28.034Z,0.43
2022-12-16T05:29:13.558Z,0.60
2022-12-16T05:31:58.605Z,0.60
2022-12-16T05:34:44.013Z,0.40
2022-12-16T05:37:29.384Z,0.73
2022-12-16T05:40:14.751Z,0.57
2022-12-16T05:43:04.151Z,1.10
2022-12-16T05:45:49.545Z,1.57
2022-12-16T05:48:35.117Z,0.80
2022-12-16T05:51:20.486Z,0.47
2022-12-16T05:54:06.180Z,1.00
2022-12-16T05:56:51.768Z,0.30
2022-12-16T05:59:38.524Z,1.33
2022-12-16T06:02:24.304Z,1.17
2022-12-16T06:05:09.522Z,0.87
2022-12-16T06:07:55.025Z,0.67
2022-12-16T06:10:40.540Z,0.47
2022-12-16T06:13:25.916Z,0.60
2022-12-16T06:16:12.606Z,1.93
2022-12-16T06:18:58.128Z,0.47
2022-12-16T06:21:45.998Z,0.90
2022-12-16T06:24:31.540Z,0.67
2022-12-16T06:27:16.924Z,1.57
2022-12-16T06:30:02.127Z,1.20
2022-12-16T06:32:48.922Z,1.00
2022-12-16T06:35:34.230Z,1.53
2022-12-16T06:38:19.658Z,2.43
2022-12-16T06:41:05.156Z,0.30
2022-12-16T06:43:50.341Z,0.67
2022-12-16T06:46:35.797Z,0.53
2022-12-16T06:49:22.466Z,0.40
2022-12-16T06:52:07.960Z,0.63
2022-12-16T06:54:53.276Z,0.10
2022-12-16T06:57:38.560Z,0.43
2022-12-16T07:00:25.013Z,0.13
2022-12-16T07:03:10.314Z,0.73
2022-12-16T07:05:57.192Z,1.17
2022-12-16T07:08:42.626Z,1.90
2022-12-16T07:11:27.731Z,0.40
2022-12-16T07:14:13.183Z,0.40
2022-12-16T07:16:58.707Z,1.27
2022-12-16T07:19:44.091Z,1.03
2022-12-16T07:22:30.715Z,0.50
2022-12-16T07:25:16.277Z,1.17
2022-12-16T07:28:05.124Z,0.50
2022-12-16T07:30:50.846Z,2.00
2022-12-16T07:33:36.634Z,1.93
2022-12-16T07:36:36.820Z,2.67
2022-12-16T07:39:23.524Z,1.40
2022-12-16T07:42:08.850Z,0.90
2022-12-16T07:44:54.275Z,0.93
2022-12-16T07:47:39.665Z,2.03
2022-12-16T07:50:25.804Z,0.60
2022-12-16T07:53:13.744Z,0.43
2022-12-16T07:56:00.416Z,0.80
2022-12-16T07:58:45.958Z,1.80
2022-12-16T08:01:31.486Z,1.07
2022-12-16T08:04:17.864Z,1.33
2022-12-16T08:07:03.395Z,1.73
2022-12-16T08:09:48.689Z,1.43
2022-12-16T08:12:35.745Z,1.27
2022-12-16T08:15:21.191Z,0.50
2022-12-16T08:18:10.182Z,0.30
2022-12-16T08:20:55.566Z,1.97
2022-12-16T08:23:40.908Z,0.50
2022-12-16T08:26:26.496Z,0.60
2022-12-16T08:29:42.594Z,0.50
2022-12-16T08:32:18.561Z,2.10
2022-12-16T08:35:15.554Z,2.83
2022-12-16T08:38:00.952Z,1.90
2022-12-16T08:40:42.744Z,1.03
2022-12-16T08:43:28.012Z,1.27
2022-12-16T08:46:29.885Z,0.80
2022-12-16T08:52:05.583Z,1.77
2022-12-16T08:54:50.951Z,1.33
2022-12-16T08:57:36.930Z,0.80
2022-12-16T09:00:22.775Z,1.40
2022-12-16T09:03:14.050Z,2.13
2022-12-16T09:05:59.392Z,0.73
2022-12-16T09:08:44.832Z,0.93
2022-12-16T09:11:30.390Z,0.60
2022-12-16T09:14:15.997Z,2.07
2022-12-16T09:17:01.288Z,1.27
2022-12-16T09:19:48.327Z,0.77
2022-12-16T09:22:33.806Z,2.77
2022-12-16T09:25:19.152Z,1.73
2022-12-16T09:28:07.721Z,1.63
2022-12-16T09:30:54.262Z,2.33
2022-12-16T09:33:40.811Z,1.07
2022-12-16T09:36:28.147Z,2.97
2022-12-16T09:39:13.644Z,2.70
2022-12-16T09:42:01.630Z,1.97
2022-12-16T09:45:05.284Z,3.33
2022-12-16T09:47:57.328Z,0.87
2022-12-16T09:50:45.865Z,2.57
2022-12-16T09:53:36.822Z,3.53
2022-12-16T09:56:26.449Z,2.17
2022-12-16T09:59:16.859Z,2.27
2022-12-16T10:02:03.353Z,4.20
2022-12-16T10:04:49.057Z,4.37
2022-12-16T10:07:37.037Z,2.10
2022-12-16T10:10:35.980Z,0.83
2022-12-16T10:13:29.065Z,1.93
2022-12-16T10:16:27.184Z,1.17
2022-12-16T10:19:20.298Z,1.37
2022-12-16T10:22:12.381Z,2.17
2022-12-16T10:25:08.969Z,1.30
2022-12-16T10:28:02.784Z,1.67
2022-12-16T10:30:49.430Z,1.20
2022-12-16T10:33:36.567Z,3.37
2022-12-16T10:36:22.457Z,1.33
2022-12-16T10:39:10.703Z,1.60
2022-12-16T10:42:01.169Z,1.40
2022-12-16T10:44:52.967Z,1.60
2022-12-16T10:47:38.874Z,1.40
2022-12-16T10:50:25.329Z,2.00
2022-12-16T10:53:15.033Z,1.87
2022-12-16T10:56:16.009Z,1.90
2022-12-16T10:59:07.076Z,3.60
2022-12-16T11:01:54.264Z,2.30
2022-12-16T11:04:49.311Z,1.13
2022-12-16T11:08:23.233Z,1.97
2022-12-16T11:11:08.635Z,2.07
2022-12-16T11:13:55.422Z,1.20
2022-12-16T11:16:43.002Z,3.00
2022-12-16T11:19:38.630Z,2.70
2022-12-16T11:22:26.637Z,1.43
2022-12-16T11:25:25.066Z,1.03
2022-12-16T11:28:20.547Z,2.90
2022-12-16T11:31:12.165Z,2.40
2022-12-16T11:33:58.498Z,1.17
2022-12-16T11:36:46.297Z,1.20
2022-12-16T11:39:34.852Z,2.23
2022-12-16T11:42:21.322Z,1.20
2022-12-16T11:45:10.480Z,2.30
2022-12-16T11:47:59.802Z,0.80
2022-12-16T11:50:47.840Z,1.37
2022-12-16T11:53:48.873Z,0.73
2022-12-16T11:56:39.196Z,2.30
2022-12-16T11:59:34.009Z,2.27
2022-12-16T12:02:23.075Z,3.05
2022-12-16T12:05:20.947Z,3.67
2022-12-16T12:08:15.977Z,5.40
2022-12-16T12:11:21.668Z,4.20
2022-12-16T12:14:20.339Z,3.00
2022-12-16T12:17:19.339Z,4.03
2022-12-16T12:20:15.690Z,1.83
2022-12-16T12:23:01.217Z,3.60
2022-12-16T12:25:56.309Z,3.97
2022-12-16T12:29:06.354Z,4.77
2022-12-16T12:31:58.043Z,3.70
2022-12-16T12:35:02.697Z,3.30
2022-12-16T12:37:55.349Z,1.48
2022-12-16T12:40:54.770Z,4.30
2022-12-16T12:43:55.188Z,4.13
2022-12-16T12:46:47.859Z,2.00
2022-12-16T12:49:40.510Z,3.80
2022-12-16T12:52:37.539Z,2.07
2022-12-16T12:55:33.463Z,2.73
2022-12-16T12:58:20.340Z,3.70
2022-12-16T13:01:11.848Z,4.63
2022-12-16T13:04:02.896Z,1.53
2022-12-16T13:06:48.898Z,2.03
2022-12-16T13:09:50.928Z,2.90
2022-12-16T13:12:47.775Z,4.43
2022-12-16T13:15:53.573Z,2.93
2022-12-16T13:18:43.524Z,2.00
2022-12-16T13:22:02.512Z,3.17
2022-12-16T13:24:55.959Z,3.97
2022-12-16T13:27:42.360Z,1.57
2022-12-16T13:30:40.441Z,2.40
2022-12-16T13:33:40.022Z,4.60
2022-12-16T13:36:28.760Z,3.27
2022-12-16T13:39:16.143Z,1.73
2022-12-16T13:42:18.198Z,1.73
2022-12-16T13:45:19.156Z,2.03
2022-12-16T13:48:19.262Z,3.60
2022-12-16T13:51:05.987Z,4.70
2022-12-16T13:53:58.147Z,2.57
2022-12-16T13:56:49.287Z,1.67
2022-12-16T13:59:37.873Z,2.97
2022-12-16T14:02:39.530Z,3.53
2022-12-16T14:05:36.759Z,3.10
2022-12-16T14:08:25.140Z,2.47
2022-12-16T14:11:19.292Z,3.93
2022-12-16T14:14:11.779Z,2.45
2022-12-16T14:17:09.601Z,4.20
2022-12-16T14:20:11.233Z,2.60
2022-12-16T14:23:17.925Z,2.87
2022-12-16T14:29:04.227Z,1.80
2022-12-16T14:31:54.852Z,3.33
2022-12-16T14:34:43.861Z,1.27
2022-12-16T14:37:32.216Z,2.63
2022-12-16T14:40:16.963Z,1.37
2022-12-16T14:43:08.422Z,1.00
2022-12-16T14:46:09.310Z,1.77
2022-12-16T14:48:57.072Z,2.73
2022-12-16T14:51:44.560Z,0.70
2022-12-16T14:54:38.149Z,1.90
2022-12-16T14:57:24.474Z,1.00
2022-12-16T15:00:21.538Z,1.13
2022-12-16T15:03:10.799Z,1.93
2022-12-16T15:05:58.604Z,3.30
2022-12-16T15:08:45.106Z,1.53
2022-12-16T15:11:33.649Z,1.43
2022-12-16T15:14:20.061Z,1.97
2022-12-16T15:17:09.082Z,1.50
2022-12-16T15:20:03.577Z,1.77
2022-12-16T15:25:39.826Z,1.83
2022-12-16T15:28:42.027Z,1.37
2022-12-16T15:31:34.585Z,2.00
2022-12-16T15:34:47.773Z,3.50
2022-12-16T15:37:39.261Z,6.53
2022-12-16T15:40:38.746Z,3.50
2022-12-16T15:43:24.012Z,6.23
2022-12-16T15:46:10.088Z,3.90
2022-12-16T15:48:56.620Z,4.00
2022-12-16T15:51:49.132Z,5.40
2022-12-16T15:54:39.046Z,3.13
2022-12-16T15:57:44.179Z,2.50
2022-12-16T16:00:39.101Z,3.25
2022-12-16T16:06:20.102Z,5.25
2022-12-16T16:09:10.742Z,4.63
2022-12-16T16:11:56.287Z,6.00
2022-12-16T16:14:41.659Z,13.93
2022-12-16T16:17:39.759Z,8.93
2022-12-16T16:20:36.551Z,5.57
2022-12-16T16:23:22.643Z,5.83
2022-12-16T16:26:09.305Z,10.33
2022-12-16T16:28:54.785Z,4.97
2022-12-16T16:31:40.284Z,1.57
2022-12-16T16:34:25.634Z,3.60
2022-12-16T16:37:13.654Z,3.17
2022-12-16T16:39:59.425Z,3.17
2022-12-16T16:42:46.169Z,3.87
2022-12-16T16:45:32.190Z,1.63
2022-12-16T16:48:24.893Z,4.70
2022-12-16T16:51:13.725Z,2.60
2022-12-16T16:53:59.103Z,3.67
2022-12-16T16:56:45.169Z,4.83
2022-12-16T16:59:32.248Z,3.30
2022-12-16T17:02:36.138Z,2.57
2022-12-16T17:05:27.157Z,2.57
2022-12-16T17:08:12.774Z,2.60
2022-12-16T17:10:58.078Z,3.07
2022-12-16T17:13:43.525Z,2.40
2022-12-16T17:16:31.800Z,3.67
2022-12-16T17:19:18.365Z,4.10
2022-12-16T17:22:04.034Z,3.97
2022-12-16T17:24:53.771Z,3.23
2022-12-16T17:27:41.153Z,2.63
2022-12-16T17:30:33.725Z,5.37
2022-12-16T17:33:20.651Z,2.37
2022-12-16T17:36:07.653Z,2.20
2022-12-16T17:38:55.621Z,4.33
2022-12-16T17:41:40.881Z,4.53
2022-12-16T17:44:37.780Z,2.77
2022-12-16T17:47:23.461Z,2.87
2022-12-16T17:50:10.236Z,3.50
2022-12-16T17:53:00.956Z,1.40
2022-12-16T17:55:42.755Z,2.77
2022-12-16T17:58:30.816Z,2.20
2022-12-16T18:01:19.437Z,3.70
2022-12-16T18:04:04.913Z,2.87
2022-12-16T18:06:51.920Z,3.07
2022-12-16T18:09:37.456Z,3.30
2022-12-16T18:12:23.313Z,4.37
2022-12-16T18:15:08.742Z,5.97
2022-12-16T18:17:53.974Z,3.33
2022-12-16T18:20:39.182Z,4.93
2022-12-16T18:23:26.009Z,2.97
2022-12-16T18:26:19.062Z,5.90
2022-12-16T18:29:04.445Z,3.33
2022-12-16T18:31:49.977Z,5.27
2022-12-16T18:34:35.543Z,4.03
2022-12-16T18:37:20.929Z,3.93
2022-12-16T18:40:07.779Z,6.23
2022-12-16T18:42:53.215Z,5.63
2022-12-16T18:45:38.598Z,4.57
2022-12-16T18:48:24.584Z,4.80
2022-12-16T18:51:13.538Z,3.00
2022-12-16T18:53:59.081Z,3.07
2022-12-16T18:56:46.115Z,5.47
2022-12-16T18:59:31.376Z,4.37
2022-12-16T19:02:16.908Z,6.37
2022-12-16T19:05:02.341Z,4.10
2022-12-16T19:07:47.847Z,2.80
2022-12-16T19:10:33.459Z,1.10
2022-12-16T19:13:16.677Z,3.30
2022-12-16T19:16:02.189Z,1.97
2022-12-16T19:18:47.615Z,2.50
2022-12-16T19:21:33.021Z,4.37
2022-12-16T19:24:18.414Z,2.80
2022-12-16T19:27:03.945Z,2.80
2022-12-16T19:29:50.698Z,3.33
2022-12-16T19:32:37.252Z,1.37
2022-12-16T19:35:23.187Z,4.50
2022-12-16T19:38:08.608Z,1.23
2022-12-16T19:40:55.097Z,2.07
2022-12-16T19:43:41.735Z,3.40
2022-12-16T19:46:28.872Z,1.07
2022-12-16T19:49:14.328Z,1.70
2022-12-16T19:51:59.705Z,1.43
2022-12-16T19:54:44.977Z,1.80
2022-12-16T19:57:30.474Z,1.40
2022-12-16T20:00:16.119Z,2.37
2022-12-16T20:03:03.374Z,1.80
2022-12-16T20:05:48.741Z,2.60
2022-12-16T20:08:34.182Z,3.60
2022-12-16T20:11:23.544Z,2.27
2022-12-16T20:14:11.044Z,3.83
2022-12-16T20:16:56.967Z,3.77
2022-12-16T20:19:43.817Z,3.17
2022-12-16T20:22:31.658Z,1.93
2022-12-16T20:25:17.100Z,2.97
2022-12-16T20:28:10.873Z,2.93
2022-12-16T20:30:56.415Z,2.90
2022-12-16T20:37:03.317Z,2.20
2022-12-16T20:39:56.380Z,1.97
2022-12-16T20:42:42.506Z,1.97
2022-12-16T20:45:28.510Z,2.40
2022-12-16T20:48:13.961Z,0.93
2022-12-16T20:50:59.275Z,1.67
2022-12-16T20:53:46.557Z,2.73
2022-12-16T20:56:32.056Z,2.63
2022-12-16T20:59:17.456Z,1.27
2022-12-16T21:02:22.744Z,2.30
2022-12-16T21:05:16.751Z,1.70
2022-12-16T21:08:02.322Z,3.50
2022-12-16T21:10:50.021Z,2.33
2022-12-16T21:13:36.383Z,2.03
2022-12-16T21:16:24.085Z,4.20
2022-12-16T21:19:09.478Z,3.47
2022-12-16T21:21:55.055Z,4.73
2022-12-16T21:24:42.059Z,5.97
2022-12-16T21:27:29.392Z,1.90
2022-12-16T21:30:14.551Z,1.33
2022-12-16T21:33:00.146Z,4.47
2022-12-16T21:35:45.345Z,1.87
2022-12-16T21:38:31.375Z,0.97
2022-12-16T21:41:16.756Z,1.93
2022-12-16T21:44:03.517Z,2.27
2022-12-16T21:46:48.256Z,1.10
2022-12-16T21:49:33.799Z,2.40
2022-12-16T21:52:19.181Z,2.00
2022-12-16T21:55:04.670Z,1.90
2022-12-16T21:57:49.893Z,1.40
2022-12-16T22:00:37.113Z,2.23
2022-12-16T22:03:22.887Z,2.10
2022-12-16T22:06:08.438Z,1.43
2022-12-16T22:08:56.211Z,1.13
2022-12-16T22:11:42.154Z,1.97
2022-12-16T22:14:27.649Z,1.13
2022-12-16T22:17:14.212Z,3.93
2022-12-16T22:19:59.777Z,4.10
2022-12-16T22:22:45.344Z,4.50
2022-12-16T22:25:30.764Z,5.10
2022-12-16T22:28:16.325Z,2.10
2022-12-16T22:31:01.668Z,1.33
2022-12-16T22:33:48.636Z,0.60
2022-12-16T22:36:34.353Z,1.30
2022-12-16T22:39:19.770Z,1.37
2022-12-16T22:42:05.076Z,1.13
2022-12-16T22:44:51.348Z,0.93
2022-12-16T22:47:37.161Z,1.50
2022-12-16T22:50:24.696Z,1.63
2022-12-16T22:53:10.016Z,1.83
2022-12-16T22:56:00.215Z,2.43
2022-12-16T22:58:47.158Z,2.13
2022-12-16T23:01:32.557Z,1.30
2022-12-16T23:04:17.904Z,2.60
2022-12-16T23:07:04.942Z,2.23
2022-12-16T23:09:50.244Z,1.80
2022-12-16T23:12:35.716Z,3.07
2022-12-16T23:15:21.893Z,1.93
2022-12-16T23:18:07.264Z,3.13
2022-12-16T23:20:52.617Z,2.90
2022-12-16T23:23:43.317Z,4.13
2022-12-16T23:26:28.619Z,3.67
2022-12-16T23:29:14.201Z,4.17
2022-12-16T23:31:59.699Z,1.33
2022-12-16T23:34:46.304Z,4.33
2022-12-16T23:37:32.100Z,2.53
2022-12-16T23:40:18.814Z,4.37
2022-12-16T23:43:05.607Z,3.77
2022-12-16T23:45:51.195Z,3.87
2022-12-16T23:48:37.254Z,3.27
2022-12-16T23:51:22.836Z,4.00
2022-12-16T23:54:08.168Z,3.50
2022-12-16T23:56:54.072Z,2.83
2022-12-16T23:59:41.985Z,3.70
